createdAt,value
2023-03-30T00:00:36.268Z,22.00
2023-03-30T00:03:03.397Z,23.00
2023-03-30T00:05:30.375Z,22.50
2023-03-30T00:07:57.922Z,25.00
2023-03-30T00:10:24.816Z,21.00
2023-03-30T00:12:51.734Z,25.50
2023-03-30T00:15:21.352Z,22.00
2023-03-30T00:17:48.496Z,22.00
2023-03-30T00:20:15.621Z,21.00
2023-03-30T00:22:44.344Z,23.75
2023-03-30T00:25:14.878Z,22.00
2023-03-30T00:27:41.920Z,21.00
2023-03-30T00:30:12.771Z,19.00
2023-03-30T00:32:40.200Z,23.50
2023-03-30T00:35:09.094Z,21.00
2023-03-30T00:37:36.194Z,20.00
2023-03-30T00:40:08.261Z,23.75
2023-03-30T00:42:36.722Z,21.50
2023-03-30T00:45:18.607Z,20.00
2023-03-30T00:48:14.725Z,25.00
2023-03-30T00:50:53.736Z,20.25
2023-03-30T00:53:23.240Z,18.25
2023-03-30T00:55:52.531Z,20.00
2023-03-30T00:58:21.600Z,20.75
2023-03-30T01:00:49.194Z,24.75
2023-03-30T01:03:30.689Z,24.50
2023-03-30T01:06:00.577Z,22.50
2023-03-30T01:08:28.972Z,22.50
2023-03-30T01:10:55.910Z,20.50
2023-03-30T01:13:22.994Z,22.50
2023-03-30T01:16:24.718Z,25.00
2023-03-30T01:19:10.549Z,23.00
2023-03-30T01:22:14.460Z,21.00
2023-03-30T01:25:19.860Z,24.00
2023-03-30T01:28:34.392Z,20.25
2023-03-30T01:31:11.626Z,24.75
2023-03-30T01:33:56.501Z,22.75
2023-03-30T01:36:41.924Z,19.00
2023-03-30T01:39:32.437Z,23.75
2023-03-30T01:42:17.594Z,20.00
2023-03-30T01:45:09.380Z,23.50
2023-03-30T01:47:45.560Z,24.00
2023-03-30T01:50:24.515Z,19.00
2023-03-30T01:52:54.852Z,17.00
2023-03-30T01:55:42.279Z,16.00
2023-03-30T01:58:32.675Z,23.50
2023-03-30T02:01:02.717Z,22.00
2023-03-30T02:03:33.239Z,20.00
2023-03-30T02:06:08.809Z,23.75
2023-03-30T02:08:38.361Z,22.00
2023-03-30T02:11:06.758Z,19.00
2023-03-30T02:13:38.004Z,18.00
2023-03-30T02:16:20.324Z,22.50
2023-03-30T02:18:47.301Z,20.75
2023-03-30T02:21:14.620Z,20.00
2023-03-30T02:23:45.636Z,24.25
2023-03-30T02:26:13.054Z,24.00
2023-03-30T02:28:40.233Z,26.75
2023-03-30T02:31:14.963Z,22.00
2023-03-30T02:34:14.461Z,18.00
2023-03-30T02:37:06.269Z,24.25
2023-03-30T02:39:52.104Z,24.50
2023-03-30T02:42:42.455Z,25.25
2023-03-30T02:45:29.897Z,22.00
2023-03-30T02:48:12.371Z,23.75
2023-03-30T02:50:45.259Z,20.00
2023-03-30T02:53:40.068Z,18.00
2023-03-30T02:56:23.786Z,23.00
2023-03-30T02:59:08.844Z,26.75
2023-03-30T03:01:41.389Z,20.75
2023-03-30T03:04:15.770Z,22.00
2023-03-30T03:07:22.144Z,23.50
2023-03-30T03:09:50.770Z,25.25
2023-03-30T03:12:17.629Z,23.00
2023-03-30T03:14:45.090Z,20.00
2023-03-30T03:17:12.156Z,22.75
2023-03-30T03:19:45.018Z,24.00
2023-03-30T03:22:12.844Z,17.25
2023-03-30T03:24:42.107Z,22.50
2023-03-30T03:27:09.088Z,20.00
2023-03-30T03:29:53.258Z,23.25
2023-03-30T03:32:20.334Z,27.00
2023-03-30T03:34:49.129Z,23.00
2023-03-30T03:37:16.246Z,23.00
2023-03-30T03:39:45.012Z,25.00
2023-03-30T03:42:13.571Z,26.00
2023-03-30T03:44:58.128Z,22.50
2023-03-30T03:47:25.355Z,21.00
2023-03-30T03:49:52.378Z,25.00
2023-03-30T03:52:19.365Z,22.00
2023-03-30T03:54:46.592Z,22.75
2023-03-30T03:57:13.942Z,25.00
2023-03-30T03:59:43.274Z,22.25
2023-03-30T04:02:10.523Z,25.00
2023-03-30T04:04:37.431Z,20.00
2023-03-30T04:07:05.019Z,23.00
2023-03-30T04:09:31.911Z,27.00
2023-03-30T04:12:26.468Z,24.75
2023-03-30T04:15:17.779Z,22.50
2023-03-30T04:18:02.005Z,17.50
2023-03-30T04:21:03.611Z,17.00
2023-03-30T04:24:08.915Z,22.50
2023-03-30T04:26:54.540Z,22.00
2023-03-30T04:29:41.804Z,23.00
2023-03-30T04:32:40.983Z,22.50
2023-03-30T04:35:34.735Z,18.00
2023-03-30T04:38:27.311Z,20.50
2023-03-30T04:41:20.884Z,20.00
2023-03-30T04:44:10.117Z,22.00
2023-03-30T04:46:55.411Z,22.00
2023-03-30T04:49:37.376Z,22.50
2023-03-30T04:52:23.332Z,23.00
2023-03-30T04:55:22.273Z,20.00
2023-03-30T04:57:52.193Z,22.00
2023-03-30T05:00:45.486Z,21.00
2023-03-30T05:03:31.367Z,22.00
2023-03-30T05:06:11.143Z,23.75
2023-03-30T05:09:17.146Z,19.75
2023-03-30T05:12:00.445Z,15.50
2023-03-30T05:14:50.582Z,14.00
2023-03-30T05:17:34.980Z,17.75
2023-03-30T05:20:23.512Z,20.25
2023-03-30T05:23:13.668Z,24.75
2023-03-30T05:26:07.207Z,20.00
2023-03-30T05:29:00.005Z,18.00
2023-03-30T05:31:53.075Z,21.50
2023-03-30T05:34:25.805Z,27.00
2023-03-30T05:37:31.580Z,26.00
2023-03-30T05:40:35.723Z,23.00
2023-03-30T05:43:05.845Z,25.00
2023-03-30T05:46:05.352Z,21.00
2023-03-30T05:48:48.162Z,17.50
2023-03-30T05:51:35.658Z,18.00
2023-03-30T05:54:12.339Z,19.75
2023-03-30T05:56:57.880Z,20.50
2023-03-30T05:59:39.669Z,16.50
2023-03-30T06:02:26.833Z,20.50
2023-03-30T06:04:59.114Z,22.50
2023-03-30T06:07:26.336Z,23.00
2023-03-30T06:09:53.253Z,22.00
2023-03-30T06:12:25.886Z,25.00
2023-03-30T06:14:53.361Z,19.50
2023-03-30T06:17:33.862Z,23.00
2023-03-30T06:20:01.076Z,19.00
2023-03-30T06:22:32.001Z,17.00
2023-03-30T06:25:08.897Z,18.00
2023-03-30T06:27:36.703Z,16.00
2023-03-30T06:30:04.966Z,14.00
2023-03-30T06:32:32.560Z,21.50
2023-03-30T06:35:17.826Z,20.00
2023-03-30T06:37:44.925Z,22.25
2023-03-30T06:40:12.369Z,18.00
2023-03-30T06:42:41.571Z,23.00
2023-03-30T06:45:26.981Z,25.00
2023-03-30T06:47:54.780Z,26.75
2023-03-30T06:50:22.739Z,25.00
2023-03-30T06:52:49.914Z,24.00
2023-03-30T06:55:17.108Z,24.00
2023-03-30T06:57:46.309Z,22.00
2023-03-30T07:00:14.273Z,21.25
2023-03-30T07:03:00.278Z,26.00
2023-03-30T07:05:34.880Z,25.00
2023-03-30T07:08:08.489Z,27.00
2023-03-30T07:10:38.695Z,26.00
2023-03-30T07:13:08.612Z,28.75
2023-03-30T07:15:37.062Z,31.00
2023-03-30T07:18:05.777Z,29.50
2023-03-30T07:20:32.849Z,27.00
2023-03-30T07:23:12.274Z,24.75
2023-03-30T07:25:45.817Z,25.00
2023-03-30T07:28:36.095Z,27.00
2023-03-30T07:31:11.240Z,27.00
2023-03-30T07:33:43.955Z,24.00
2023-03-30T07:36:15.345Z,25.00
2023-03-30T07:38:42.889Z,24.75
2023-03-30T07:41:12.476Z,25.00
2023-03-30T07:43:40.469Z,23.00
2023-03-30T07:46:09.085Z,24.00
2023-03-30T07:48:40.495Z,24.00
2023-03-30T07:51:11.496Z,27.25
2023-03-30T07:53:48.442Z,24.00
2023-03-30T07:56:23.440Z,23.50
2023-03-30T07:58:54.464Z,25.00
2023-03-30T08:01:27.077Z,23.00
2023-03-30T08:04:26.205Z,22.00
2023-03-30T08:06:55.239Z,26.75
2023-03-30T08:09:23.847Z,24.25
2023-03-30T08:11:51.137Z,26.25
2023-03-30T08:14:18.382Z,24.50
2023-03-30T08:16:48.394Z,23.50
2023-03-30T08:19:15.545Z,24.75
2023-03-30T08:21:42.620Z,23.50
2023-03-30T08:24:09.528Z,21.25
2023-03-30T08:26:36.493Z,27.50
2023-03-30T08:29:03.390Z,24.50
2023-03-30T08:31:30.843Z,26.00
2023-03-30T08:33:57.885Z,26.00
2023-03-30T08:36:25.566Z,27.00
2023-03-30T08:38:55.201Z,25.00
2023-03-30T08:41:28.372Z,26.00
2023-03-30T08:44:00.775Z,28.00
2023-03-30T08:46:30.538Z,24.00
2023-03-30T08:49:01.206Z,24.75
2023-03-30T08:51:31.126Z,28.75
2023-03-30T08:54:07.004Z,30.75
2023-03-30T08:57:06.314Z,27.75
2023-03-30T09:00:03.666Z,25.00
2023-03-30T09:02:38.184Z,24.00
2023-03-30T09:05:37.335Z,22.00
2023-03-30T09:08:21.050Z,22.75
2023-03-30T09:10:59.908Z,24.50
2023-03-30T09:13:32.961Z,24.00
2023-03-30T09:16:05.987Z,23.00
2023-03-30T09:18:38.236Z,26.00
2023-03-30T09:21:07.022Z,28.00
2023-03-30T09:23:55.111Z,29.00
2023-03-30T09:27:01.092Z,24.25
2023-03-30T09:29:36.347Z,26.50
2023-03-30T09:32:14.732Z,27.00
2023-03-30T09:34:54.605Z,27.00
2023-03-30T09:37:22.736Z,24.00
2023-03-30T09:39:49.783Z,27.75
2023-03-30T09:42:35.273Z,28.00
2023-03-30T09:45:30.183Z,28.00
2023-03-30T09:48:08.009Z,27.00
2023-03-30T09:50:43.020Z,25.00
2023-03-30T09:53:26.417Z,26.75
2023-03-30T09:56:01.013Z,24.50
2023-03-30T09:58:30.954Z,27.00
2023-03-30T10:01:09.643Z,26.00
2023-03-30T10:03:36.765Z,25.75
2023-03-30T10:06:18.682Z,23.00
2023-03-30T10:08:51.171Z,24.50
2023-03-30T10:11:21.721Z,25.75
2023-03-30T10:13:50.667Z,27.50
2023-03-30T10:16:31.913Z,26.75
2023-03-30T10:19:17.307Z,26.00
2023-03-30T10:21:45.565Z,23.50
2023-03-30T10:24:15.193Z,27.00
2023-03-30T10:26:47.022Z,27.50
2023-03-30T10:29:18.293Z,25.25
2023-03-30T10:31:48.600Z,25.00
2023-03-30T10:34:28.492Z,23.50
2023-03-30T10:37:00.517Z,27.25
2023-03-30T10:39:33.660Z,27.25
2023-03-30T10:42:03.175Z,23.00
2023-03-30T10:44:43.653Z,23.00
2023-03-30T10:47:22.386Z,26.00
2023-03-30T10:49:58.639Z,23.00
2023-03-30T10:53:10.345Z,25.00
2023-03-30T10:55:50.552Z,23.00
2023-03-30T10:58:26.888Z,20.50
2023-03-30T11:00:56.934Z,20.00
2023-03-30T11:03:29.695Z,22.75
2023-03-30T11:06:09.299Z,22.00
2023-03-30T11:08:42.931Z,24.00
2023-03-30T11:11:59.786Z,29.00
2023-03-30T11:14:56.542Z,25.00
2023-03-30T11:17:28.590Z,25.00
2023-03-30T11:20:05.624Z,25.00
2023-03-30T11:22:47.392Z,26.00
2023-03-30T11:25:25.498Z,24.00
2023-03-30T11:28:29.688Z,22.25
2023-03-30T11:31:03.220Z,22.00
2023-03-30T11:33:39.072Z,27.50
2023-03-30T11:36:15.232Z,25.00
2023-03-30T11:39:03.833Z,24.75
2023-03-30T11:41:54.868Z,25.00
2023-03-30T11:44:22.066Z,21.00
2023-03-30T11:47:14.999Z,23.00
2023-03-30T11:50:03.300Z,22.00
2023-03-30T11:52:51.470Z,20.50
2023-03-30T11:55:26.767Z,20.00
2023-03-30T11:58:12.195Z,22.00
2023-03-30T12:00:41.949Z,27.00
2023-03-30T12:03:15.922Z,27.75
2023-03-30T12:05:46.911Z,24.50
2023-03-30T12:08:20.190Z,21.00
2023-03-30T12:11:01.172Z,26.00
2023-03-30T12:13:38.103Z,23.25
2023-03-30T12:16:21.465Z,24.50
2023-03-30T12:19:12.124Z,23.00
2023-03-30T12:22:04.508Z,27.50
2023-03-30T12:24:49.477Z,26.00
2023-03-30T12:27:16.544Z,25.75
2023-03-30T12:30:01.755Z,23.25
2023-03-30T12:32:31.506Z,25.00
2023-03-30T12:34:59.055Z,24.50
2023-03-30T12:37:36.330Z,20.25
2023-03-30T12:40:17.416Z,15.25
2023-03-30T12:43:14.810Z,18.00
2023-03-30T12:46:16.981Z,18.00
2023-03-30T12:49:07.487Z,19.00
2023-03-30T12:51:53.071Z,18.00
2023-03-30T12:54:36.254Z,23.00
2023-03-30T12:57:31.659Z,24.00
2023-03-30T13:00:40.843Z,21.50
2023-03-30T13:03:18.965Z,25.00
2023-03-30T13:05:52.515Z,25.00
2023-03-30T13:08:37.897Z,25.50
2023-03-30T13:11:21.309Z,22.00
2023-03-30T13:14:19.595Z,20.25
2023-03-30T13:16:52.687Z,18.00
2023-03-30T13:19:40.524Z,22.25
2023-03-30T13:22:13.664Z,24.50
2023-03-30T13:24:53.106Z,22.00
2023-03-30T13:27:20.032Z,17.00
2023-03-30T13:30:02.116Z,20.50
2023-03-30T13:32:44.771Z,24.25
2023-03-30T13:35:49.007Z,20.25
2023-03-30T13:38:24.934Z,22.00
2023-03-30T13:41:13.422Z,20.00
2023-03-30T13:44:00.055Z,18.00
2023-03-30T13:46:32.680Z,20.75
2023-03-30T13:49:30.192Z,24.50
2023-03-30T13:52:24.875Z,27.00
2023-03-30T13:54:52.496Z,20.25
2023-03-30T13:57:37.485Z,22.00
2023-03-30T14:00:25.824Z,22.00
2023-03-30T14:02:52.808Z,24.75
2023-03-30T14:05:22.445Z,24.00
2023-03-30T14:07:49.727Z,20.00
2023-03-30T14:10:19.273Z,18.00
2023-03-30T14:12:51.245Z,17.00
2023-03-30T14:15:23.668Z,22.75
2023-03-30T14:17:57.201Z,20.00
2023-03-30T14:20:43.304Z,21.00
2023-03-30T14:23:20.816Z,16.25
2023-03-30T14:25:47.893Z,15.00
2023-03-30T14:28:19.398Z,16.00
2023-03-30T14:30:55.282Z,23.00
2023-03-30T14:33:25.778Z,22.00
2023-03-30T14:35:55.144Z,18.25
2023-03-30T14:38:26.772Z,16.00
2023-03-30T14:40:55.175Z,15.00
2023-03-30T14:43:30.156Z,20.75
2023-03-30T14:46:02.486Z,24.00
2023-03-30T14:48:33.143Z,25.25
2023-03-30T14:51:06.786Z,21.00
2023-03-30T14:53:34.955Z,24.00
2023-03-30T14:56:02.936Z,24.00
2023-03-30T14:58:32.815Z,20.25
2023-03-30T15:01:02.770Z,24.00
2023-03-30T15:03:35.056Z,24.00
2023-03-30T15:06:04.992Z,19.50
2023-03-30T15:08:36.641Z,17.00
2023-03-30T15:11:14.837Z,17.00
2023-03-30T15:13:46.663Z,17.00
2023-03-30T15:16:20.021Z,14.75
2023-03-30T15:18:47.298Z,15.00
2023-03-30T15:21:15.275Z,17.00
2023-03-30T15:23:45.556Z,22.00
2023-03-30T15:26:13.603Z,26.00
2023-03-30T15:28:48.946Z,21.25
2023-03-30T15:31:16.934Z,24.25
2023-03-30T15:33:51.621Z,24.00
2023-03-30T15:36:22.619Z,22.00
2023-03-30T15:38:53.179Z,21.00
2023-03-30T15:41:45.610Z,19.50
2023-03-30T15:44:17.468Z,21.00
2023-03-30T15:46:45.754Z,23.00
2023-03-30T15:49:17.431Z,20.50
2023-03-30T15:51:49.127Z,23.50
2023-03-30T15:54:48.549Z,24.00
2023-03-30T15:57:23.440Z,22.00
2023-03-30T15:59:57.040Z,25.50
2023-03-30T16:02:40.636Z,22.00
2023-03-30T16:05:17.573Z,25.50
2023-03-30T16:07:44.893Z,25.00
2023-03-30T16:10:18.233Z,28.00
2023-03-30T16:12:51.798Z,23.25
2023-03-30T16:15:29.861Z,21.00
2023-03-30T16:18:00.060Z,21.75
2023-03-30T16:20:32.831Z,23.00
2023-03-30T16:23:00.348Z,21.50
2023-03-30T16:25:44.250Z,23.00
2023-03-30T16:28:18.954Z,20.50
2023-03-30T16:30:50.289Z,22.75
2023-03-30T16:33:18.748Z,28.00
2023-03-30T16:35:50.684Z,25.00
2023-03-30T16:38:19.807Z,25.50
2023-03-30T16:40:56.193Z,25.50
2023-03-30T16:43:26.028Z,24.00
2023-03-30T16:45:53.345Z,25.25
2023-03-30T16:48:20.331Z,26.75
2023-03-30T16:50:54.169Z,24.00
2023-03-30T16:53:21.091Z,22.00
2023-03-30T16:55:48.467Z,19.00
2023-03-30T16:58:15.874Z,21.00
2023-03-30T17:00:44.638Z,18.00
2023-03-30T17:03:11.686Z,16.00
2023-03-30T17:05:38.850Z,19.00
2023-03-30T17:08:19.728Z,22.25
2023-03-30T17:10:46.909Z,20.50
2023-03-30T17:13:14.322Z,21.50
2023-03-30T17:15:41.787Z,25.00
2023-03-30T17:18:17.588Z,21.00
2023-03-30T17:20:46.852Z,18.75
2023-03-30T17:23:15.021Z,16.00
2023-03-30T17:25:42.345Z,21.25
2023-03-30T17:28:20.018Z,23.00
2023-03-30T17:30:47.884Z,24.00
2023-03-30T17:33:15.168Z,21.00
2023-03-30T17:35:46.336Z,22.00
2023-03-30T17:38:14.747Z,21.50
2023-03-30T17:40:45.067Z,18.00
2023-03-30T17:43:12.464Z,17.00
2023-03-30T17:45:40.114Z,22.00
2023-03-30T17:48:12.398Z,21.00
2023-03-30T17:50:42.327Z,19.00
2023-03-30T17:53:19.572Z,14.50
2023-03-30T17:55:49.100Z,10.00
2023-03-30T17:58:30.145Z,9.25
2023-03-30T18:00:57.171Z,19.25
2023-03-30T18:03:24.948Z,16.75
2023-03-30T18:05:52.582Z,8.00
2023-03-30T18:08:21.377Z,10.25
2023-03-30T18:10:59.618Z,13.25
2023-03-30T18:13:28.965Z,13.00
2023-03-30T18:15:58.161Z,15.50
2023-03-30T18:18:27.369Z,14.25
2023-03-30T18:20:57.077Z,12.50
2023-03-30T18:23:24.646Z,20.25
2023-03-30T18:25:51.928Z,16.75
2023-03-30T18:28:20.859Z,19.00
2023-03-30T18:30:48.755Z,16.00
2023-03-30T18:33:16.010Z,14.00
2023-03-30T18:35:45.570Z,15.00
2023-03-30T18:38:18.254Z,20.00
2023-03-30T18:40:47.560Z,15.00
2023-03-30T18:43:14.790Z,15.00
2023-03-30T18:45:50.400Z,15.50
2023-03-30T18:48:19.991Z,14.50
2023-03-30T18:50:55.358Z,20.75
2023-03-30T18:53:25.302Z,17.75
2023-03-30T18:55:58.121Z,16.00
2023-03-30T18:58:36.995Z,17.00
2023-03-30T19:01:05.883Z,21.25
2023-03-30T19:03:37.669Z,20.00
2023-03-30T19:06:05.276Z,19.50
2023-03-30T19:08:32.205Z,18.00
2023-03-30T19:10:59.080Z,19.25
2023-03-30T19:13:29.286Z,19.25
2023-03-30T19:15:56.729Z,16.00
2023-03-30T19:18:23.665Z,14.75
2023-03-30T19:20:51.883Z,16.00
2023-03-30T19:23:20.063Z,17.50
2023-03-30T19:25:47.030Z,14.00
2023-03-30T19:28:14.601Z,13.00
2023-03-30T19:30:45.656Z,13.00
2023-03-30T19:33:16.525Z,10.00
2023-03-30T19:35:45.683Z,12.00
2023-03-30T19:38:13.477Z,18.25
2023-03-30T19:40:41.238Z,14.50
2023-03-30T19:43:08.358Z,14.75
2023-03-30T19:45:35.451Z,14.00
2023-03-30T19:48:02.641Z,12.00
2023-03-30T19:50:30.527Z,14.00
2023-03-30T19:52:58.038Z,21.50
2023-03-30T19:55:25.541Z,21.00
2023-03-30T19:57:52.411Z,15.00
2023-03-30T20:00:20.091Z,19.50
2023-03-30T20:02:53.255Z,16.00
2023-03-30T20:05:22.523Z,16.00
2023-03-30T20:07:50.627Z,12.00
2023-03-30T20:10:22.291Z,11.00
2023-03-30T20:12:50.813Z,10.00
2023-03-30T20:15:18.524Z,15.00
2023-03-30T20:17:45.718Z,19.50
2023-03-30T20:20:16.452Z,23.00
2023-03-30T20:22:44.683Z,21.00
2023-03-30T20:25:15.925Z,21.00
2023-03-30T20:27:42.835Z,17.00
2023-03-30T20:30:10.310Z,13.00
2023-03-30T20:32:37.856Z,13.00
2023-03-30T20:35:08.616Z,18.50
2023-03-30T20:37:35.583Z,21.25
2023-03-30T20:40:03.851Z,22.75
2023-03-30T20:42:32.507Z,16.00
2023-03-30T20:44:59.703Z,16.25
2023-03-30T20:47:28.889Z,18.50
2023-03-30T20:49:55.823Z,17.00
2023-03-30T20:52:22.840Z,14.00
2023-03-30T20:54:50.254Z,17.00
2023-03-30T20:57:17.189Z,20.00
2023-03-30T20:59:44.015Z,16.25
2023-03-30T21:02:11.850Z,19.00
2023-03-30T21:04:38.895Z,15.00
2023-03-30T21:07:06.113Z,18.25
2023-03-30T21:09:32.996Z,14.50
2023-03-30T21:12:00.137Z,9.00
2023-03-30T21:14:27.171Z,13.75
2023-03-30T21:16:54.163Z,20.50
2023-03-30T21:19:21.192Z,12.75
2023-03-30T21:21:48.256Z,12.00
2023-03-30T21:24:15.156Z,13.25
2023-03-30T21:26:42.041Z,15.50
2023-03-30T21:29:08.922Z,13.00
2023-03-30T21:31:35.845Z,13.50
2023-03-30T21:34:02.686Z,17.25
2023-03-30T21:36:29.863Z,22.00
2023-03-30T21:38:56.995Z,22.00
2023-03-30T21:41:23.837Z,22.00
2023-03-30T21:43:50.764Z,15.50
2023-03-30T21:46:20.616Z,18.00
2023-03-30T21:48:50.570Z,12.25
2023-03-30T21:51:22.970Z,11.50
2023-03-30T21:53:52.239Z,12.00
2023-03-30T21:56:20.912Z,11.25
2023-03-30T21:58:48.245Z,8.00
2023-03-30T22:01:15.689Z,15.75
2023-03-30T22:03:43.673Z,21.00
2023-03-30T22:06:12.915Z,21.00
2023-03-30T22:08:40.268Z,18.00
2023-03-30T22:11:11.488Z,13.00
2023-03-30T22:13:38.544Z,18.75
2023-03-30T22:16:10.335Z,14.50
2023-03-30T22:18:37.453Z,14.00
2023-03-30T22:21:06.600Z,19.75
2023-03-30T22:23:33.762Z,14.25
2023-03-30T22:26:00.600Z,19.25
2023-03-30T22:28:27.621Z,12.75
2023-03-30T22:30:54.600Z,16.75
2023-03-30T22:33:21.487Z,11.50
2023-03-30T22:35:48.520Z,19.25
2023-03-30T22:38:15.804Z,12.75
2023-03-30T22:40:43.153Z,9.25
2023-03-30T22:43:11.519Z,13.75
2023-03-30T22:45:39.549Z,13.00
2023-03-30T22:48:06.870Z,12.00
2023-03-30T22:50:35.200Z,16.75
2023-03-30T22:53:02.293Z,14.00
2023-03-30T22:55:29.298Z,16.50
2023-03-30T22:57:56.332Z,16.25
2023-03-30T23:00:23.954Z,16.00
2023-03-30T23:02:51.180Z,19.00
2023-03-30T23:05:18.280Z,18.00
2023-03-30T23:07:45.233Z,13.00
2023-03-30T23:10:15.682Z,12.00
2023-03-30T23:12:44.065Z,11.00
2023-03-30T23:15:11.852Z,12.50
2023-03-30T23:17:39.092Z,15.75
2023-03-30T23:20:07.740Z,16.00
2023-03-30T23:22:34.858Z,16.50
2023-03-30T23:25:01.847Z,20.00
2023-03-30T23:27:28.814Z,20.00
2023-03-30T23:29:55.670Z,15.50
2023-03-30T23:32:22.590Z,12.00
2023-03-30T23:34:49.479Z,18.75
2023-03-30T23:37:17.191Z,15.75
2023-03-30T23:39:45.278Z,18.00
2023-03-30T23:42:12.277Z,18.00
2023-03-30T23:44:39.321Z,12.00
2023-03-30T23:47:06.214Z,16.00
2023-03-30T23:49:33.105Z,20.25
2023-03-30T23:52:00.139Z,22.50
2023-03-30T23:54:27.041Z,20.00
2023-03-30T23:56:53.929Z,18.00
2023-03-30T23:59:20.824Z,13.00
